首页
METAR-TAF:

METAR-TAF

机场 :

格勒诺布尔, 法国

纬度: 45-22N, 经度: 005-20E, 海拔: 384米

当前天气观测

该预报发布于30分钟前的08:00 UTC
风速8节,风向,在北转西北东北之间变化
温度 23°C
湿度 50%
气压 1018 hPa
能见度10公里或以上
1500米以下无云,无积雨云

METAR: LFLS 190800Z AUTO 01008KT 340V040 CAVOK 23/12 Q1018 NOSIG

时间: 10:30 (08:30 UTC)

预报

该预报发布于6小时和30分钟前的02:00 UTC
预报有效从19日的 03点(UTC)到 20日的 03点(UTC)
风速6节,风向
能见度10公里或以上
1500米以下无云,无积雨云
成为
从 19日的 18点(UTC)到 19日的 21点(UTC)
风速5节,风向西转西南

TAF: LFLS 190200Z 1903/2003 36006KT CAVOK BECMG 1918/1921 24005KT

超过4000个机场的气象观测和天气预报(METAR&TAF报告)。

可查询的气象台以黄色和红色小点在地图上表示。

将鼠标移到小点上方,可查看气象台名称。

然后点击查看天气观测和预报。

如需切换地图:点击带黑十字的绿色按钮放大地图;点击带横线的绿色按钮缩小地图;或者点击绿色箭头查看邻近地区的地图。


METAR-TAF: